Time;durP1;ratioP1;P1;durP2;ratioP2;P2;SDS_P1;SDS_P2;PMS_P1;PMS_P2;Temp;Humidity;BMP_temperature;BMP_pressure;BME280_temperature;BME280_humidity;BME280_pressure;Samples;Min_cycle;Max_cycle;Signal;HPM_P1;HPM_P2
2022/01/29 00:00:32;;;;;;;2.37;1.13;;;4.10;98.60;;;;;;5072414;28;20189;-59
2022/01/29 00:02:59;;;;;;;2.73;1.30;;;4.10;98.70;;;;;;5073162;28;20208;-59
2022/01/29 00:05:26;;;;;;;5.90;2.07;;;4.10;98.70;;;;;;5071973;28;20213;-59
2022/01/29 00:07:53;;;;;;;5.43;2.10;;;4.10;98.60;;;;;;5075014;28;20196;-58
2022/01/29 00:10:20;;;;;;;3.10;1.50;;;4.00;98.50;;;;;;5072616;28;20334;-58
2022/01/29 00:12:49;;;;;;;4.83;2.00;;;4.00;98.60;;;;;;5074927;28;20277;-59
2022/01/29 00:15:16;;;;;;;5.27;1.90;;;3.90;98.60;;;;;;5073922;28;20189;-59
2022/01/29 00:17:43;;;;;;;2.47;1.20;;;3.90;98.70;;;;;;5077640;28;20204;-58
2022/01/29 00:20:11;;;;;;;2.93;1.63;;;3.90;98.70;;;;;;5074139;28;20201;-58
2022/01/29 00:22:38;;;;;;;4.30;1.60;;;3.90;98.90;;;;;;5080340;28;20230;-59
2022/01/29 00:25:07;;;;;;;3.97;1.40;;;3.90;99.00;;;;;;5075398;28;20204;-58
2022/01/29 00:27:35;;;;;;;3.63;1.47;;;3.90;98.90;;;;;;5080247;28;20208;-59
2022/01/29 00:30:10;;;;;;;3.43;1.60;;;3.80;99.00;;;;;;5074423;28;20201;-59
2022/01/29 00:32:38;;;;;;;2.03;1.20;;;3.90;99.10;;;;;;5081015;28;20204;-57
2022/01/29 00:35:06;;;;;;;3.93;1.57;;;3.90;99.00;;;;;;5075193;28;20308;-59
2022/01/29 00:37:33;;;;;;;2.37;1.27;;;3.90;99.10;;;;;;5109946;27;20208;-58
2022/01/29 00:40:00;;;;;;;1.77;1.40;;;3.90;99.10;;;;;;5076448;28;20208;-59
2022/01/29 00:42:27;;;;;;;3.70;1.40;;;3.90;99.20;;;;;;5083017;28;20196;-59
2022/01/29 00:44:54;;;;;;;2.83;1.53;;;3.90;99.20;;;;;;5076506;28;20619;-58
2022/01/29 00:47:23;;;;;;;3.80;1.53;;;3.90;99.10;;;;;;5084071;28;20188;-59
2022/01/29 00:49:50;;;;;;;5.13;1.57;;;3.90;99.20;;;;;;5072397;28;20189;-59
2022/01/29 00:52:17;;;;;;;3.33;1.67;;;3.90;99.20;;;;;;5058689;28;20258;-59
2022/01/29 00:54:45;;;;;;;3.47;1.77;;;3.90;99.20;;;;;;5065520;28;20283;-59
2022/01/29 00:57:12;;;;;;;4.97;2.13;;;3.90;99.20;;;;;;5070022;28;20221;-59
2022/01/29 00:59:39;;;;;;;5.27;1.90;;;3.90;99.20;;;;;;5072477;28;20197;-59
2022/01/29 01:02:08;;;;;;;4.00;1.50;;;3.80;99.20;;;;;;5072725;28;20195;-58
2022/01/29 01:04:39;;;;;;;5.37;1.77;;;3.80;99.30;;;;;;5073725;28;20659;-59
2022/01/29 01:07:07;;;;;;;3.87;1.80;;;3.80;99.80;;;;;;5073446;28;20276;-58
2022/01/29 01:09:34;;;;;;;6.10;2.00;;;3.80;99.50;;;;;;5073901;28;20640;-59
2022/01/29 01:12:02;;;;;;;7.77;2.20;;;3.70;99.50;;;;;;5072359;28;20212;-59
2022/01/29 01:14:29;;;;;;;3.43;1.90;;;3.70;99.60;;;;;;5072898;28;20200;-58
2022/01/29 01:16:56;;;;;;;5.60;1.90;;;3.70;99.60;;;;;;5073664;28;20197;-58
2022/01/29 01:19:25;;;;;;;7.10;2.00;;;3.70;99.60;;;;;;5076942;28;20200;-59
2022/01/29 01:21:55;;;;;;;6.00;1.77;;;3.70;99.70;;;;;;5073945;28;20189;-59
2022/01/29 01:24:22;;;;;;;4.63;1.70;;;3.60;99.80;;;;;;5077575;28;20195;-59
2022/01/29 01:26:49;;;;;;;5.47;2.00;;;3.70;99.90;;;;;;5074049;28;20200;-58
2022/01/29 01:29:16;;;;;;;4.20;1.90;;;3.70;99.90;;;;;;5078875;28;20197;-58
2022/01/29 01:31:45;;;;;;;5.00;1.90;;;3.70;99.90;;;;;;5075079;28;20274;-59
2022/01/29 01:34:12;;;;;;;4.93;1.77;;;3.70;99.90;;;;;;5079227;28;20232;-58
2022/01/29 01:36:45;;;;;;;4.67;1.90;;;3.70;99.90;;;;;;5073647;28;20224;-59
2022/01/29 01:39:17;;;;;;;5.17;2.00;;;3.70;99.90;;;;;;5069440;28;20380;-58
2022/01/29 01:41:54;;;;;;;2.30;1.70;;;3.70;99.90;;;;;;5107466;27;20201;-59
2022/01/29 01:44:21;;;;;;;4.30;1.70;;;3.70;99.90;;;;;;5075561;28;20193;-57
2022/01/29 01:46:48;;;;;;;3.73;1.73;;;3.70;99.90;;;;;;5078336;28;20197;-59
2022/01/29 01:49:16;;;;;;;4.83;1.73;;;3.80;99.90;;;;;;5077393;28;20201;-59
2022/01/29 01:51:44;;;;;;;4.10;1.70;;;3.80;99.90;;;;;;5068166;28;20205;-58
2022/01/29 01:54:11;;;;;;;5.30;1.80;;;3.80;99.90;;;;;;5063402;28;20201;-58
2022/01/29 01:56:40;;;;;;;4.10;1.83;;;3.70;99.90;;;;;;5069504;28;20538;-58
2022/01/29 01:59:07;;;;;;;8.90;2.30;;;3.80;99.90;;;;;;5071112;28;20199;-58
2022/01/29 02:01:34;;;;;;;8.50;2.10;;;3.70;99.90;;;;;;5073163;28;20232;-57
2022/01/29 02:04:02;;;;;;;7.40;2.43;;;3.70;99.90;;;;;;5071308;28;20735;-59
2022/01/29 02:06:30;;;;;;;2.93;1.70;;;3.70;99.90;;;;;;5074353;28;20208;-57
2022/01/29 02:09:00;;;;;;;3.87;1.90;;;3.60;99.90;;;;;;5072041;28;20682;-59
2022/01/29 02:11:28;;;;;;;2.87;1.63;;;3.60;99.90;;;;;;5069894;28;20595;-59
2022/01/29 02:13:58;;;;;;;2.10;1.10;;;3.60;99.90;;;;;;5062481;28;20228;-59
2022/01/29 02:16:26;;;;;;;4.13;1.33;;;3.70;99.90;;;;;;5074505;28;20193;-58
2022/01/29 02:18:53;;;;;;;3.50;1.50;;;3.70;99.90;;;;;;5075746;28;20271;-59
2022/01/29 02:21:21;;;;;;;2.93;1.47;;;3.80;99.90;;;;;;5075359;28;20201;-59
2022/01/29 02:23:50;;;;;;;2.63;1.30;;;3.80;99.90;;;;;;5076312;28;20276;-59
2022/01/29 02:26:17;;;;;;;1.63;1.10;;;3.80;99.90;;;;;;5080557;28;20189;-58
2022/01/29 02:28:44;;;;;;;1.80;0.93;;;3.90;99.90;;;;;;5082208;28;20199;-58
2022/01/29 02:31:11;;;;;;;3.60;1.20;;;3.90;99.90;;;;;;5082062;28;20591;-59
2022/01/29 02:33:40;;;;;;;1.37;1.17;;;3.90;99.90;;;;;;5081221;28;20703;-59
2022/01/29 02:36:08;;;;;;;6.87;1.93;;;3.90;99.90;;;;;;5081664;28;20198;-59
2022/01/29 02:38:35;;;;;;;4.40;1.90;;;3.90;99.90;;;;;;5082318;28;20284;-58
2022/01/29 02:41:06;;;;;;;4.47;1.80;;;3.90;99.90;;;;;;5081908;28;20203;-58
2022/01/29 02:43:38;;;;;;;5.57;2.37;;;3.90;99.90;;;;;;5081878;28;20185;-58
2022/01/29 02:46:12;;;;;;;3.53;2.00;;;3.90;99.90;;;;;;5081974;28;20247;-59
2022/01/29 02:48:39;;;;;;;2.97;1.93;;;3.90;99.90;;;;;;5084992;28;20609;-60
2022/01/29 02:51:06;;;;;;;4.13;1.60;;;3.90;99.90;;;;;;5070550;28;20196;-58
2022/01/29 02:53:33;;;;;;;3.70;1.83;;;4.00;99.90;;;;;;5071104;28;20225;-60
2022/01/29 02:56:01;;;;;;;4.53;1.90;;;4.00;99.90;;;;;;5072568;28;20231;-60
2022/01/29 02:58:29;;;;;;;3.87;1.90;;;3.90;99.90;;;;;;5073386;28;20197;-60
2022/01/29 03:00:57;;;;;;;3.30;1.87;;;3.90;99.90;;;;;;5074292;28;20235;-59
2022/01/29 03:03:25;;;;;;;1.73;1.63;;;3.90;99.90;;;;;;5073466;28;20676;-59
2022/01/29 03:05:52;;;;;;;6.13;1.90;;;3.90;99.90;;;;;;5066781;28;20207;-59
2022/01/29 03:08:19;;;;;;;2.40;1.57;;;3.90;99.90;;;;;;5076271;28;20197;-59
2022/01/29 03:10:47;;;;;;;2.60;1.53;;;3.90;99.90;;;;;;5076083;28;20560;-59
2022/01/29 03:13:14;;;;;;;3.30;1.50;;;3.90;99.90;;;;;;5073851;28;20549;-58
2022/01/29 03:15:43;;;;;;;2.20;1.43;;;4.00;99.90;;;;;;5077383;28;20200;-58
2022/01/29 03:18:10;;;;;;;3.17;1.90;;;4.00;99.90;;;;;;5077278;28;20231;-59
2022/01/29 03:20:37;;;;;;;1.90;1.20;;;4.00;99.90;;;;;;5077161;28;20203;-60
2022/01/29 03:23:04;;;;;;;2.20;1.30;;;4.00;99.90;;;;;;5079318;28;20188;-60
2022/01/29 03:25:31;;;;;;;2.30;1.37;;;4.00;99.90;;;;;;5078763;28;20672;-59
2022/01/29 03:27:58;;;;;;;2.13;1.20;;;4.00;99.90;;;;;;5079094;28;20657;-59
2022/01/29 03:30:25;;;;;;;1.97;1.20;;;4.00;99.90;;;;;;5079275;28;20275;-59
2022/01/29 03:32:54;;;;;;;1.90;1.30;;;4.10;99.90;;;;;;5080448;28;20209;-59
2022/01/29 03:35:21;;;;;;;1.97;1.03;;;4.00;99.90;;;;;;5079676;28;20282;-59
2022/01/29 03:37:48;;;;;;;1.50;1.10;;;4.00;99.90;;;;;;5079710;28;20205;-59
2022/01/29 03:40:15;;;;;;;2.60;1.10;;;4.00;99.90;;;;;;5079586;28;20197;-58
2022/01/29 03:42:57;;;;;;;3.47;1.20;;;4.00;99.90;;;;;;5072676;28;20242;-59
2022/01/29 03:45:24;;;;;;;2.50;1.40;;;3.90;99.90;;;;;;5083129;28;20275;-60
2022/01/29 03:47:51;;;;;;;2.10;1.10;;;3.90;99.90;;;;;;5077990;28;20205;-58
2022/01/29 03:50:20;;;;;;;1.37;1.23;;;3.90;99.90;;;;;;5076611;28;20648;-59
2022/01/29 03:52:47;;;;;;;1.33;1.10;;;3.80;99.90;;;;;;5073277;28;20209;-59
2022/01/29 03:55:14;;;;;;;1.30;0.93;;;3.80;99.90;;;;;;5116645;27;20211;-60
2022/01/29 03:57:41;;;;;;;2.33;1.20;;;3.70;99.90;;;;;;5079002;28;20283;-57
2022/01/29 04:00:09;;;;;;;1.53;1.17;;;3.70;99.90;;;;;;5077591;28;20192;-59
2022/01/29 04:02:36;;;;;;;1.87;1.20;;;3.60;99.90;;;;;;5078736;28;20220;-59
2022/01/29 04:05:04;;;;;;;2.53;1.30;;;3.60;99.90;;;;;;5085802;28;20228;-59
2022/01/29 04:07:32;;;;;;;1.77;1.20;;;3.60;99.90;;;;;;5087692;28;20196;-58
2022/01/29 04:09:59;;;;;;;1.90;1.10;;;3.60;99.90;;;;;;5070728;28;20188;-59
2022/01/29 04:12:30;;;;;;;2.43;1.20;;;3.60;99.90;;;;;;5071332;28;20580;-59
2022/01/29 04:14:58;;;;;;;2.93;1.30;;;3.60;99.90;;;;;;5071397;28;20246;-59
2022/01/29 04:17:25;;;;;;;3.03;1.20;;;3.50;99.90;;;;;;5071264;28;20220;-59
2022/01/29 04:19:52;;;;;;;3.93;1.73;;;3.60;99.90;;;;;;5072737;28;20185;-59
2022/01/29 04:22:19;;;;;;;3.60;1.80;;;3.50;99.90;;;;;;5071809;28;20197;-58
2022/01/29 04:24:48;;;;;;;4.87;1.37;;;3.50;99.90;;;;;;5074156;28;20250;-57
2022/01/29 04:27:18;;;;;;;3.87;1.80;;;3.40;99.90;;;;;;5072970;28;20587;-59
2022/01/29 04:29:55;;;;;;;2.43;1.60;;;3.30;99.90;;;;;;5073577;28;20200;-57
2022/01/29 04:32:31;;;;;;;4.43;1.63;;;3.40;99.90;;;;;;5071972;28;20284;-56
2022/01/29 04:34:58;;;;;;;2.63;1.30;;;3.30;99.90;;;;;;5071856;28;20236;-58
2022/01/29 04:37:25;;;;;;;2.50;1.77;;;3.30;99.90;;;;;;5074895;28;20209;-59
2022/01/29 04:39:53;;;;;;;1.83;1.63;;;3.20;99.90;;;;;;5068831;28;20590;-59
2022/01/29 04:42:20;;;;;;;1.90;1.10;;;3.20;99.90;;;;;;5076600;28;20664;-58
2022/01/29 04:44:47;;;;;;;1.67;1.30;;;3.20;99.90;;;;;;5076375;28;20208;-59
2022/01/29 04:47:15;;;;;;;4.27;1.80;;;3.20;99.90;;;;;;5078023;28;20199;-59
2022/01/29 04:49:42;;;;;;;2.70;1.47;;;3.20;99.90;;;;;;5070654;28;20271;-59
2022/01/29 04:52:09;;;;;;;2.60;1.40;;;3.20;99.90;;;;;;5058731;28;20683;-59
2022/01/29 04:54:36;;;;;;;1.83;1.33;;;3.20;99.90;;;;;;5064603;28;20259;-59
2022/01/29 04:57:04;;;;;;;3.07;1.90;;;3.10;99.90;;;;;;5070345;28;20194;-59
2022/01/29 04:59:32;;;;;;;2.87;1.83;;;3.10;99.90;;;;;;5071140;28;20560;-59
2022/01/29 05:01:59;;;;;;;3.00;2.10;;;3.10;99.90;;;;;;5060823;28;20254;-59
2022/01/29 05:04:26;;;;;;;4.27;1.87;;;3.10;99.90;;;;;;5071541;28;20196;-59
2022/01/29 05:06:53;;;;;;;2.70;1.93;;;3.00;99.90;;;;;;5071863;28;20193;-57
2022/01/29 05:09:20;;;;;;;4.27;2.27;;;3.10;99.90;;;;;;5072254;28;20201;-58
2022/01/29 05:11:50;;;;;;;3.50;2.03;;;3.10;99.90;;;;;;5072616;28;20236;-58
2022/01/29 05:14:27;;;;;;;6.00;2.30;;;3.10;99.90;;;;;;5072493;28;20204;-59
2022/01/29 05:25:36;;;;;;;3.90;1.97;;;3.10;99.90;;;;;;5074030;28;20731;-59
2022/01/29 05:27:58;;;;;;;2.83;1.50;;;3.20;99.90;;;;;;5070877;28;20200;-58
2022/01/29 05:30:26;;;;;;;6.30;2.50;;;3.20;99.90;;;;;;5074427;28;20201;-58
2022/01/29 05:32:53;;;;;;;14.00;3.37;;;3.20;99.90;;;;;;5077626;28;20221;-59
2022/01/29 05:35:20;;;;;;;9.27;3.40;;;3.20;99.90;;;;;;5075058;28;20243;-59
2022/01/29 05:37:50;;;;;;;8.40;3.10;;;3.20;99.90;;;;;;5079633;28;20201;-59
2022/01/29 05:40:17;;;;;;;4.20;2.00;;;3.20;99.90;;;;;;5076792;28;20251;-58
2022/01/29 05:42:45;;;;;;;5.40;2.20;;;3.20;99.90;;;;;;5079939;28;20196;-59
2022/01/29 05:45:12;;;;;;;5.67;1.90;;;3.10;99.90;;;;;;5078306;28;20203;-57
2022/01/29 05:47:40;;;;;;;1.93;1.47;;;3.10;99.90;;;;;;5081056;28;20725;-58
2022/01/29 05:50:08;;;;;;;3.73;1.63;;;3.10;99.90;;;;;;5068590;28;20212;-58
2022/01/29 05:52:35;;;;;;;1.97;1.47;;;3.20;99.90;;;;;;5057606;28;20339;-59
2022/01/29 05:55:03;;;;;;;1.77;1.47;;;3.20;99.90;;;;;;5066594;28;20565;-59
2022/01/29 05:57:30;;;;;;;2.80;1.47;;;3.20;99.90;;;;;;5069204;28;20610;-59
2022/01/29 05:59:57;;;;;;;2.77;1.43;;;3.20;99.90;;;;;;5069616;28;20722;-60
2022/01/29 06:02:24;;;;;;;2.97;1.40;;;3.20;99.90;;;;;;5071074;28;20250;-59
2022/01/29 06:04:52;;;;;;;6.20;1.53;;;3.20;99.90;;;;;;5069280;28;20212;-61
2022/01/29 06:07:20;;;;;;;2.53;1.30;;;3.20;99.90;;;;;;5071254;28;20224;-60
2022/01/29 06:09:48;;;;;;;2.27;1.47;;;3.20;99.90;;;;;;5070644;28;20201;-59
2022/01/29 06:12:15;;;;;;;5.47;1.97;;;3.20;99.90;;;;;;5070126;28;20247;-59
2022/01/29 06:14:42;;;;;;;3.40;1.80;;;3.30;99.90;;;;;;5072247;28;20217;-59
2022/01/29 06:17:11;;;;;;;4.50;2.40;;;3.30;99.90;;;;;;5071888;28;20281;-59
2022/01/29 06:19:38;;;;;;;5.73;2.10;;;3.30;99.90;;;;;;5070587;28;20208;-60
2022/01/29 06:22:10;;;;;;;7.60;3.03;;;3.40;99.90;;;;;;5072916;28;20211;-58
2022/01/29 06:24:37;;;;;;;5.83;2.97;;;3.40;99.90;;;;;;5075262;28;20530;-59
2022/01/29 06:27:05;;;;;;;9.13;3.40;;;3.40;99.90;;;;;;5071838;28;20537;-60
2022/01/29 06:29:32;;;;;;;12.57;3.40;;;3.40;99.90;;;;;;5107021;28;20648;-60
2022/01/29 06:31:59;;;;;;;6.80;2.77;;;3.40;99.90;;;;;;5073090;28;20213;-58
2022/01/29 06:34:26;;;;;;;7.57;2.37;;;3.40;99.90;;;;;;5077063;28;20281;-59
2022/01/29 06:36:53;;;;;;;5.93;2.27;;;3.50;99.90;;;;;;5074427;28;20284;-59
2022/01/29 06:39:22;;;;;;;3.10;1.77;;;3.50;99.90;;;;;;5076847;28;20215;-59
2022/01/29 06:41:49;;;;;;;6.47;2.23;;;3.50;99.90;;;;;;5075890;28;20201;-58
2022/01/29 06:44:16;;;;;;;5.53;2.07;;;3.50;99.90;;;;;;5080725;28;20557;-59
2022/01/29 06:46:43;;;;;;;6.67;2.20;;;3.50;99.90;;;;;;5077024;28;20537;-59
2022/01/29 06:49:10;;;;;;;3.33;1.90;;;3.50;99.90;;;;;;5078625;28;20203;-58
2022/01/29 06:51:37;;;;;;;4.27;2.07;;;3.50;99.90;;;;;;5055981;28;20189;-58
2022/01/29 06:54:05;;;;;;;3.67;2.10;;;3.50;99.90;;;;;;5067253;28;20225;-60
2022/01/29 06:56:33;;;;;;;10.47;2.67;;;3.60;99.90;;;;;;5069177;28;20201;-57
2022/01/29 06:59:00;;;;;;;3.83;2.20;;;3.60;99.90;;;;;;5071189;28;20193;-57
2022/01/29 07:01:28;;;;;;;7.60;3.43;;;3.50;99.90;;;;;;5073107;28;20189;-59
2022/01/29 07:03:55;;;;;;;5.20;2.67;;;3.60;99.90;;;;;;5071787;28;20231;-60
2022/01/29 07:06:22;;;;;;;8.73;2.93;;;3.60;99.90;;;;;;5073060;28;20212;-58
2022/01/29 07:08:49;;;;;;;6.77;2.90;;;3.60;99.90;;;;;;5071942;28;20197;-58
2022/01/29 07:11:20;;;;;;;6.67;2.70;;;3.60;99.90;;;;;;5074169;28;20232;-59
2022/01/29 07:13:49;;;;;;;6.23;3.00;;;3.50;99.90;;;;;;5074741;28;20213;-58
2022/01/29 07:16:16;;;;;;;9.43;3.53;;;3.50;99.90;;;;;;5078058;28;20200;-58
2022/01/29 07:18:43;;;;;;;6.10;2.97;;;3.50;99.90;;;;;;5075801;28;20208;-58
2022/01/29 07:21:10;;;;;;;4.07;2.30;;;3.50;99.90;;;;;;5079361;28;20386;-59
2022/01/29 07:23:37;;;;;;;4.87;2.70;;;3.50;99.90;;;;;;5076550;28;20276;-57
2022/01/29 07:26:04;;;;;;;5.23;2.80;;;3.60;99.90;;;;;;5080355;28;20659;-59
2022/01/29 07:28:32;;;;;;;4.07;2.40;;;3.60;99.90;;;;;;5076787;28;20561;-59
2022/01/29 07:31:00;;;;;;;7.83;3.00;;;3.60;99.90;;;;;;5081964;28;20264;-58
2022/01/29 07:33:28;;;;;;;8.70;3.23;;;3.70;99.90;;;;;;5075808;28;20574;-58
2022/01/29 07:35:56;;;;;;;7.37;3.07;;;3.70;99.90;;;;;;5080662;28;20229;-59
2022/01/29 07:38:23;;;;;;;5.43;2.63;;;3.70;99.90;;;;;;5077544;28;20678;-59
2022/01/29 07:40:50;;;;;;;7.60;2.63;;;3.70;99.90;;;;;;5083224;28;20260;-59
2022/01/29 07:43:17;;;;;;;14.00;3.07;;;3.70;99.90;;;;;;5078176;28;20599;-59
2022/01/29 07:45:45;;;;;;;11.40;3.33;;;3.70;99.90;;;;;;5078863;28;20250;-58
2022/01/29 07:48:13;;;;;;;11.73;3.67;;;3.70;99.90;;;;;;5073467;28;20199;-58
2022/01/29 07:50:40;;;;;;;8.77;3.20;;;3.70;99.90;;;;;;5065927;28;20196;-59
2022/01/29 07:53:07;;;;;;;10.83;3.73;;;3.70;99.90;;;;;;5062036;28;20558;-59
2022/01/29 07:55:34;;;;;;;14.27;3.90;;;3.70;99.90;;;;;;5071153;28;20201;-60
2022/01/29 07:58:02;;;;;;;18.77;4.93;;;3.70;99.90;;;;;;5072073;28;20537;-60
2022/01/29 08:00:30;;;;;;;22.00;4.37;;;3.70;99.90;;;;;;5073360;28;20204;-59
2022/01/29 08:02:57;;;;;;;23.60;5.67;;;3.70;99.90;;;;;;5073749;28;20201;-58
2022/01/29 08:05:25;;;;;;;9.50;3.90;;;3.70;99.90;;;;;;5073509;28;20193;-59
2022/01/29 08:07:52;;;;;;;11.87;3.97;;;3.70;99.90;;;;;;5083031;28;20683;-59
2022/01/29 08:10:19;;;;;;;11.00;3.77;;;3.70;99.90;;;;;;5071044;28;20258;-60
2022/01/29 08:12:46;;;;;;;16.20;4.03;;;3.80;99.90;;;;;;5073784;28;20253;-60
2022/01/29 08:15:15;;;;;;;14.33;3.83;;;3.80;99.90;;;;;;5072329;28;20267;-60
2022/01/29 08:17:42;;;;;;;11.57;3.53;;;4.00;99.90;;;;;;5073652;28;20699;-59
2022/01/29 08:20:10;;;;;;;12.27;3.40;;;4.00;99.90;;;;;;5071646;28;20193;-59
2022/01/29 08:22:38;;;;;;;14.67;4.20;;;4.00;99.90;;;;;;5074836;28;20201;-59
2022/01/29 08:25:06;;;;;;;16.67;4.20;;;4.10;99.90;;;;;;5072745;28;20644;-60
2022/01/29 08:27:33;;;;;;;22.10;4.60;;;4.10;99.90;;;;;;5074876;28;20205;-60
2022/01/29 08:30:01;;;;;;;13.83;4.33;;;4.10;99.90;;;;;;5072156;28;20737;-60
2022/01/29 08:32:28;;;;;;;16.00;5.30;;;4.10;99.90;;;;;;5076748;28;20192;-57
2022/01/29 08:34:55;;;;;;;12.53;4.40;;;4.10;99.90;;;;;;5071732;28;20254;-59
2022/01/29 08:37:22;;;;;;;14.67;4.30;;;4.00;99.90;;;;;;5076454;28;20310;-59
2022/01/29 08:39:51;;;;;;;7.73;3.43;;;4.10;99.90;;;;;;5075695;28;20209;-59
2022/01/29 08:42:18;;;;;;;16.30;4.57;;;4.10;99.90;;;;;;5075527;28;20193;-59
2022/01/29 08:44:45;;;;;;;13.60;4.30;;;4.10;99.90;;;;;;5074976;28;20196;-58
2022/01/29 08:47:12;;;;;;;15.87;4.13;;;4.10;99.90;;;;;;5079329;28;20196;-59
2022/01/29 08:49:40;;;;;;;14.17;4.07;;;4.10;99.90;;;;;;5072040;28;20566;-59
2022/01/29 08:52:08;;;;;;;10.60;3.80;;;4.10;99.90;;;;;;5058660;28;20285;-58
2022/01/29 08:54:35;;;;;;;10.63;4.00;;;4.10;99.90;;;;;;5064991;28;20205;-59
2022/01/29 08:57:04;;;;;;;6.57;3.20;;;4.10;99.90;;;;;;5063615;28;20201;-56
2022/01/29 08:59:31;;;;;;;9.93;3.90;;;4.10;99.90;;;;;;5072868;28;20194;-59
2022/01/29 09:01:58;;;;;;;12.63;4.13;;;4.10;99.90;;;;;;5059198;28;20193;-59
2022/01/29 09:04:25;;;;;;;6.30;3.20;;;4.10;99.90;;;;;;5073461;28;20193;-59
2022/01/29 09:06:52;;;;;;;9.47;3.37;;;4.10;99.90;;;;;;5072118;28;20786;-60
2022/01/29 09:09:24;;;;;;;11.37;3.83;;;4.10;99.90;;;;;;5073505;28;20196;-55
2022/01/29 09:11:52;;;;;;;6.97;3.40;;;4.00;99.90;;;;;;5059363;28;20185;-59
2022/01/29 09:14:21;;;;;;;12.47;3.67;;;4.00;99.90;;;;;;5072643;28;20212;-60
2022/01/29 09:16:48;;;;;;;5.97;3.50;;;4.00;99.90;;;;;;5060339;28;20196;-60
2022/01/29 09:19:15;;;;;;;8.77;4.20;;;4.00;99.90;;;;;;5075563;28;20728;-60
2022/01/29 09:21:42;;;;;;;5.40;3.20;;;4.00;99.90;;;;;;5060037;28;20199;-56
2022/01/29 09:24:09;;;;;;;13.07;4.03;;;4.10;99.90;;;;;;5075894;28;20191;-57
2022/01/29 09:26:36;;;;;;;10.20;4.10;;;4.10;99.90;;;;;;5059550;28;20192;-58
2022/01/29 09:29:04;;;;;;;13.87;4.37;;;4.00;99.90;;;;;;5076433;28;20200;-58
2022/01/29 09:31:34;;;;;;;6.87;3.40;;;4.10;99.90;;;;;;5074161;28;20200;-59
2022/01/29 09:34:01;;;;;;;8.83;4.03;;;4.10;99.90;;;;;;5076617;28;20204;-59
2022/01/29 09:36:28;;;;;;;7.63;3.53;;;4.10;99.90;;;;;;5069984;28;20200;-60
2022/01/29 09:38:55;;;;;;;11.93;4.33;;;4.10;99.90;;;;;;5077833;28;20193;-59
2022/01/29 09:41:24;;;;;;;7.10;4.17;;;4.10;99.90;;;;;;5070209;28;20192;-60
2022/01/29 09:43:53;;;;;;;7.60;3.87;;;4.10;99.90;;;;;;5078662;28;20201;-58
2022/01/29 09:46:20;;;;;;;7.10;3.80;;;4.10;99.90;;;;;;5073797;28;20279;-58
2022/01/29 09:48:49;;;;;;;6.90;3.70;;;4.10;99.90;;;;;;5080145;28;20193;-60
2022/01/29 09:51:17;;;;;;;8.87;4.07;;;4.10;99.90;;;;;;5068636;28;20188;-58
2022/01/29 09:53:45;;;;;;;7.27;4.03;;;4.10;99.90;;;;;;5063763;28;20201;-59
2022/01/29 09:56:12;;;;;;;11.47;4.50;;;4.10;99.90;;;;;;5068578;28;20652;-59
2022/01/29 09:58:40;;;;;;;7.97;4.17;;;4.10;99.90;;;;;;5070682;28;20220;-59
2022/01/29 10:01:07;;;;;;;11.00;4.33;;;4.10;99.90;;;;;;5072944;28;20548;-59
2022/01/29 10:03:36;;;;;;;16.13;4.73;;;4.10;99.90;;;;;;5059157;28;20625;-59
2022/01/29 10:06:05;;;;;;;9.73;4.00;;;4.10;99.90;;;;;;5073670;28;20557;-59
2022/01/29 10:08:43;;;;;;;11.57;4.20;;;4.10;99.90;;;;;;5059133;28;20207;-59
2022/01/29 10:11:20;;;;;;;7.47;3.53;;;4.10;99.90;;;;;;5074513;28;20245;-59
2022/01/29 10:13:48;;;;;;;7.50;3.77;;;4.10;99.90;;;;;;5070443;28;20613;-60
2022/01/29 10:16:18;;;;;;;7.47;3.90;;;4.10;99.90;;;;;;5074889;28;20201;-59
2022/01/29 10:18:48;;;;;;;7.20;4.43;;;4.20;99.90;;;;;;5073367;28;20201;-59
2022/01/29 10:21:21;;;;;;;7.20;4.03;;;4.20;99.90;;;;;;5068448;28;20605;-58
2022/01/29 10:23:48;;;;;;;10.07;3.87;;;4.20;99.90;;;;;;5075488;28;20204;-59
2022/01/29 10:26:30;;;;;;;9.27;4.20;;;4.20;99.90;;;;;;5074351;28;20292;-59
2022/01/29 10:28:58;;;;;;;10.47;4.00;;;4.20;99.90;;;;;;5077630;28;20307;-60
2022/01/29 10:31:25;;;;;;;8.43;3.20;;;4.20;99.90;;;;;;5075320;28;20201;-58
2022/01/29 10:33:52;;;;;;;7.67;3.23;;;4.20;99.90;;;;;;5078683;28;20278;-58
2022/01/29 10:36:22;;;;;;;5.03;3.30;;;4.20;99.90;;;;;;5075848;28;20239;-58
2022/01/29 10:38:52;;;;;;;5.67;3.20;;;4.30;99.90;;;;;;5078582;28;20200;-59
2022/01/29 10:41:23;;;;;;;5.03;3.43;;;4.20;99.90;;;;;;5076413;28;20189;-59
2022/01/29 10:44:13;;;;;;;5.17;3.03;;;4.30;99.90;;;;;;5075475;28;20249;-59
2022/01/29 10:46:46;;;;;;;7.67;3.80;;;4.30;99.90;;;;;;5081996;28;20196;-60
2022/01/29 10:49:22;;;;;;;9.93;4.03;;;4.30;99.90;;;;;;5083044;28;20227;-59
2022/01/29 10:51:58;;;;;;;6.10;3.37;;;4.20;99.90;;;;;;5060313;28;20201;-59
2022/01/29 10:54:26;;;;;;;9.10;4.00;;;4.20;99.90;;;;;;5066398;28;20211;-59
2022/01/29 10:56:55;;;;;;;8.83;4.30;;;4.20;99.90;;;;;;5073328;28;20243;-60
2022/01/29 10:59:23;;;;;;;7.60;3.87;;;4.30;99.90;;;;;;5075371;28;20201;-58
2022/01/29 11:01:52;;;;;;;7.07;3.50;;;4.20;99.90;;;;;;5075313;28;20189;-59
2022/01/29 11:04:19;;;;;;;6.83;3.33;;;4.20;99.90;;;;;;5073451;28;20308;-60
2022/01/29 11:06:48;;;;;;;6.90;3.80;;;4.30;99.90;;;;;;5073395;28;20201;-58
2022/01/29 11:09:17;;;;;;;5.87;3.40;;;4.30;99.90;;;;;;5073627;28;20636;-58
2022/01/29 11:11:46;;;;;;;6.33;3.57;;;4.30;99.90;;;;;;5075288;28;20208;-59
2022/01/29 11:14:14;;;;;;;5.90;2.87;;;4.20;99.90;;;;;;5072900;28;20201;-58
2022/01/29 11:16:42;;;;;;;2.57;2.27;;;4.20;99.90;;;;;;5073966;28;20209;-60
2022/01/29 11:19:09;;;;;;;5.97;2.73;;;4.20;99.90;;;;;;5076880;28;20278;-59
2022/01/29 11:21:38;;;;;;;4.37;2.23;;;4.20;99.90;;;;;;5075318;28;20207;-59
2022/01/29 11:24:07;;;;;;;6.00;3.20;;;4.20;99.90;;;;;;5076858;28;20678;-59
2022/01/29 11:26:37;;;;;;;5.50;2.60;;;4.20;99.90;;;;;;5075404;28;20201;-59
2022/01/29 11:29:27;;;;;;;2.50;1.90;;;4.20;99.90;;;;;;5079376;28;20204;-59
2022/01/29 11:32:29;;;;;;;2.93;2.10;;;4.20;99.90;;;;;;5075485;28;20208;-59
2022/01/29 11:35:09;;;;;;;2.07;1.83;;;4.20;99.90;;;;;;5075445;28;20692;-59
2022/01/29 11:37:41;;;;;;;9.90;2.73;;;4.30;99.90;;;;;;5081170;28;20545;-59
2022/01/29 11:40:18;;;;;;;4.60;2.57;;;4.30;99.90;;;;;;5076384;28;20676;-59
2022/01/29 11:43:07;;;;;;;3.57;2.40;;;4.30;99.90;;;;;;5080115;28;20242;-58
2022/01/29 11:45:52;;;;;;;6.77;2.40;;;4.20;99.90;;;;;;5082797;28;20200;-58
2022/01/29 11:48:52;;;;;;;3.20;2.27;;;4.20;99.90;;;;;;5075461;28;20695;-58
2022/01/29 11:51:50;;;;;;;5.17;2.90;;;4.20;99.90;;;;;;5071035;28;20197;-58
2022/01/29 11:54:21;;;;;;;8.17;3.33;;;4.20;99.90;;;;;;5060785;28;20231;-57
2022/01/29 11:56:48;;;;;;;8.03;3.47;;;4.20;99.90;;;;;;5071130;28;20323;-58
2022/01/29 11:59:34;;;;;;;5.07;2.80;;;4.20;99.90;;;;;;5072596;28;20204;-59
2022/01/29 12:02:04;;;;;;;7.53;3.03;;;4.20;99.90;;;;;;5060809;28;20201;-58
2022/01/29 12:05:05;;;;;;;6.70;2.80;;;4.20;99.90;;;;;;5075350;28;20663;-59
2022/01/29 12:07:36;;;;;;;13.63;4.53;;;4.20;99.90;;;;;;5075961;28;20561;-58
2022/01/29 12:10:07;;;;;;;8.40;3.37;;;4.20;99.90;;;;;;5073294;28;20205;-59
2022/01/29 12:12:36;;;;;;;8.30;4.10;;;4.20;99.90;;;;;;5075127;28;20601;-58
2022/01/29 12:15:36;;;;;;;4.93;2.87;;;4.20;99.90;;;;;;5074820;28;20295;-59
2022/01/29 12:18:08;;;;;;;4.07;2.90;;;4.20;99.90;;;;;;5072796;28;20664;-59
2022/01/29 12:20:36;;;;;;;4.77;2.60;;;4.20;99.90;;;;;;5075614;28;20603;-58
2022/01/29 12:23:06;;;;;;;4.60;2.53;;;4.20;99.90;;;;;;5078038;28;20201;-58
2022/01/29 12:25:33;;;;;;;3.83;2.37;;;4.30;99.90;;;;;;5074313;28;20201;-58
2022/01/29 12:28:02;;;;;;;7.23;3.40;;;4.30;99.90;;;;;;5077219;28;20196;-59
2022/01/29 12:30:31;;;;;;;4.70;2.70;;;4.30;99.90;;;;;;5077155;28;20247;-60
2022/01/29 12:33:05;;;;;;;4.87;3.03;;;4.30;99.90;;;;;;5078358;28;20213;-59
2022/01/29 12:35:37;;;;;;;4.60;2.83;;;4.30;99.90;;;;;;5077888;28;20239;-58
2022/01/29 12:38:05;;;;;;;3.97;3.07;;;4.30;99.90;;;;;;5076105;28;20263;-58
2022/01/29 12:40:38;;;;;;;3.27;2.40;;;4.40;99.90;;;;;;5078654;28;20204;-59
2022/01/29 12:43:20;;;;;;;3.13;2.20;;;4.30;99.90;;;;;;5075804;28;20201;-59
2022/01/29 12:45:48;;;;;;;3.27;2.17;;;4.30;99.90;;;;;;5072077;28;20212;-58
2022/01/29 12:48:17;;;;;;;2.83;1.97;;;4.30;99.90;;;;;;5077190;28;20668;-58
2022/01/29 12:50:45;;;;;;;3.80;2.30;;;4.30;99.90;;;;;;5064229;28;20560;-60
2022/01/29 12:53:15;;;;;;;3.43;2.20;;;4.30;99.90;;;;;;5061934;28;20294;-60
2022/01/29 12:55:42;;;;;;;2.90;2.17;;;4.30;99.90;;;;;;5070127;28;20312;-59
2022/01/29 12:58:10;;;;;;;2.80;1.73;;;4.30;99.90;;;;;;5071497;28;20242;-59
2022/01/29 13:00:38;;;;;;;2.13;1.90;;;4.40;99.90;;;;;;5072300;28;20219;-59
2022/01/29 13:03:09;;;;;;;2.30;2.10;;;4.30;99.90;;;;;;5074034;28;20590;-58
2022/01/29 13:05:45;;;;;;;2.23;2.03;;;4.40;99.90;;;;;;5072045;28;20196;-59
2022/01/29 13:08:25;;;;;;;3.67;2.53;;;4.40;99.90;;;;;;5074799;28;20189;-59
2022/01/29 13:10:52;;;;;;;3.00;2.00;;;4.40;99.90;;;;;;5074070;28;20193;-58
2022/01/29 13:13:27;;;;;;;5.07;2.73;;;4.40;99.90;;;;;;5070418;28;20197;-60